createdAt,value
2022-08-17T00:01:25.000Z,20.70
2022-08-17T00:03:58.306Z,20.80
2022-08-17T00:06:31.440Z,20.90
2022-08-17T00:09:05.329Z,20.70
2022-08-17T00:11:41.501Z,20.70
2022-08-17T00:14:19.803Z,20.60
2022-08-17T00:16:56.937Z,20.60
2022-08-17T00:19:28.739Z,20.70
2022-08-17T00:22:31.234Z,20.60
2022-08-17T00:24:54.121Z,20.60
2022-08-17T00:27:25.087Z,20.50
2022-08-17T00:29:56.040Z,20.50
2022-08-17T00:33:23.255Z,20.50
2022-08-17T00:35:25.485Z,20.50
2022-08-17T00:37:56.435Z,20.50
2022-08-17T00:40:27.447Z,20.40
2022-08-17T00:43:44.369Z,20.40
2022-08-17T00:46:22.503Z,20.30
2022-08-17T00:48:54.446Z,20.30
2022-08-17T00:52:11.627Z,20.30
2022-08-17T00:54:47.549Z,20.20
2022-08-17T00:57:22.736Z,20.00
2022-08-17T01:00:02.613Z,20.10
2022-08-17T01:02:42.304Z,20.10
2022-08-17T01:05:19.442Z,20.10
2022-08-17T01:07:52.272Z,20.10
2022-08-17T01:10:58.922Z,19.90
2022-08-17T01:13:41.115Z,19.80
2022-08-17T01:16:28.570Z,19.80
2022-08-17T01:19:13.715Z,19.70
2022-08-17T01:22:03.835Z,19.80
2022-08-17T01:24:38.713Z,19.90
2022-08-17T01:27:10.836Z,20.00
2022-08-17T01:29:48.071Z,19.90
2022-08-17T01:32:20.119Z,19.70
2022-08-17T01:34:51.208Z,19.70
2022-08-17T01:37:31.914Z,19.70
2022-08-17T01:40:31.547Z,19.70
2022-08-17T01:43:10.611Z,19.80
2022-08-17T01:45:47.150Z,19.60
2022-08-17T01:48:20.089Z,19.60
2022-08-17T01:50:52.521Z,19.50
2022-08-17T01:53:40.092Z,19.50
2022-08-17T01:56:15.335Z,19.40
2022-08-17T01:58:46.784Z,19.50
2022-08-17T02:01:22.322Z,19.40
2022-08-17T02:04:01.110Z,19.30
2022-08-17T02:06:45.214Z,19.30
2022-08-17T02:09:29.848Z,19.30
2022-08-17T02:12:38.172Z,19.30
2022-08-17T02:14:54.738Z,19.30
2022-08-17T02:17:26.552Z,19.20
2022-08-17T02:19:57.565Z,19.20
2022-08-17T02:22:29.595Z,19.10
2022-08-17T02:25:02.687Z,19.10
2022-08-17T02:27:33.900Z,19.10
2022-08-17T02:30:59.722Z,19.10
2022-08-17T02:33:06.260Z,19.10
2022-08-17T02:35:40.182Z,19.10
2022-08-17T02:38:11.211Z,18.90
2022-08-17T02:40:42.248Z,18.90
2022-08-17T02:43:16.395Z,18.90
2022-08-17T02:45:47.367Z,19.00
2022-08-17T02:48:28.180Z,19.10
2022-08-17T02:51:02.640Z,19.20
2022-08-17T02:53:35.981Z,19.10
2022-08-17T02:56:07.373Z,19.10
2022-08-17T02:58:38.385Z,19.10
2022-08-17T03:01:10.912Z,18.90
2022-08-17T03:03:42.438Z,19.00
2022-08-17T03:06:13.499Z,19.00
2022-08-17T03:08:44.458Z,19.20
2022-08-17T03:11:16.269Z,19.10
2022-08-17T03:13:47.181Z,19.00
2022-08-17T03:16:18.178Z,19.20
2022-08-17T03:18:49.092Z,19.10
2022-08-17T03:21:20.046Z,19.20
2022-08-17T03:23:54.389Z,19.10
2022-08-17T03:26:25.732Z,19.20
2022-08-17T03:29:00.635Z,19.00
2022-08-17T03:31:31.903Z,19.00
2022-08-17T03:34:03.650Z,19.00
2022-08-17T03:36:35.935Z,18.90
2022-08-17T03:39:07.385Z,18.90
2022-08-17T03:41:39.135Z,19.00
2022-08-17T03:44:10.102Z,19.10
2022-08-17T03:46:59.444Z,19.10
2022-08-17T03:49:48.814Z,19.20
2022-08-17T03:52:38.135Z,19.40
2022-08-17T03:55:36.216Z,19.30
2022-08-17T03:58:07.463Z,19.20
2022-08-17T04:00:39.678Z,19.10
2022-08-17T04:03:10.820Z,19.00
2022-08-17T04:05:42.288Z,19.10
2022-08-17T04:08:13.326Z,18.90
2022-08-17T04:10:45.278Z,18.90
2022-08-17T04:13:24.758Z,18.90
2022-08-17T04:16:00.065Z,18.90
2022-08-17T04:18:32.043Z,19.10
2022-08-17T04:21:05.011Z,19.00
2022-08-17T04:23:36.760Z,19.00
2022-08-17T04:26:07.825Z,19.00
2022-08-17T04:28:39.227Z,19.00
2022-08-17T04:31:14.734Z,18.90
2022-08-17T04:33:46.198Z,19.00
2022-08-17T04:36:17.833Z,18.90
2022-08-17T04:38:48.865Z,18.90
2022-08-17T04:41:38.526Z,18.90
2022-08-17T04:44:14.370Z,18.90
2022-08-17T04:47:07.189Z,19.00
2022-08-17T04:49:43.965Z,18.90
2022-08-17T04:52:29.845Z,18.90
2022-08-17T04:55:06.350Z,18.90
2022-08-17T04:57:41.803Z,18.90
2022-08-17T05:00:16.005Z,18.90
2022-08-17T05:02:51.064Z,18.90
2022-08-17T05:05:32.384Z,18.90
2022-08-17T05:08:06.549Z,19.00
2022-08-17T05:10:39.107Z,19.30
2022-08-17T05:13:21.982Z,19.40
2022-08-17T05:16:01.867Z,19.30
2022-08-17T05:18:33.284Z,19.30
2022-08-17T05:21:04.792Z,19.30
2022-08-17T05:23:42.741Z,19.30
2022-08-17T05:26:25.760Z,19.30
2022-08-17T05:29:02.464Z,19.30
2022-08-17T05:31:33.739Z,19.50
2022-08-17T05:34:04.787Z,19.60
2022-08-17T05:36:42.546Z,19.60
2022-08-17T05:39:15.969Z,19.40
2022-08-17T05:41:48.367Z,19.50
2022-08-17T05:44:19.388Z,19.70
2022-08-17T05:46:52.122Z,19.80
2022-08-17T05:49:28.910Z,19.80
2022-08-17T05:52:33.738Z,19.90
2022-08-17T05:55:29.165Z,20.00
2022-08-17T05:58:42.749Z,20.10
2022-08-17T06:01:35.000Z,20.20
2022-08-17T06:04:26.194Z,20.40
2022-08-17T06:07:32.322Z,20.80
2022-08-17T06:10:20.258Z,20.80
2022-08-17T06:13:31.738Z,21.00
2022-08-17T06:16:33.814Z,20.90
2022-08-17T06:19:33.931Z,21.00
2022-08-17T06:22:08.914Z,21.10
2022-08-17T06:24:47.280Z,21.10
2022-08-17T06:27:57.673Z,21.20
2022-08-17T06:31:00.055Z,21.30
2022-08-17T06:33:36.897Z,21.40
2022-08-17T06:36:22.480Z,21.30
2022-08-17T06:39:36.064Z,21.30
2022-08-17T06:43:04.032Z,21.50
2022-08-17T06:45:28.873Z,21.50
2022-08-17T06:48:15.748Z,21.70
2022-08-17T06:51:00.105Z,21.80
2022-08-17T06:53:45.610Z,21.90
2022-08-17T06:56:53.495Z,22.00
2022-08-17T06:59:55.257Z,22.00
2022-08-17T07:02:52.228Z,22.10
2022-08-17T07:05:42.548Z,22.40
2022-08-17T07:08:42.852Z,22.50
2022-08-17T07:11:48.159Z,22.80
2022-08-17T07:14:38.434Z,22.90
2022-08-17T07:17:18.434Z,23.10
2022-08-17T07:19:58.567Z,23.20
2022-08-17T07:22:53.582Z,23.40
2022-08-17T07:25:31.719Z,23.60
2022-08-17T07:28:07.756Z,23.60
2022-08-17T07:30:51.513Z,23.70
2022-08-17T07:33:29.460Z,23.80
2022-08-17T07:36:01.010Z,24.00
2022-08-17T07:38:35.671Z,24.10
2022-08-17T07:41:08.920Z,24.30
2022-08-17T07:43:39.927Z,24.40
2022-08-17T07:46:45.749Z,24.50
2022-08-17T07:49:23.216Z,24.60
2022-08-17T07:52:47.433Z,24.70
2022-08-17T07:54:53.183Z,24.80
2022-08-17T07:57:35.376Z,24.90
2022-08-17T08:00:16.951Z,24.90
2022-08-17T08:03:28.613Z,24.80
2022-08-17T08:06:02.413Z,24.90
2022-08-17T08:08:42.432Z,24.80
2022-08-17T08:11:30.772Z,24.80
2022-08-17T08:14:31.146Z,24.90
2022-08-17T08:17:06.587Z,25.00
2022-08-17T08:19:40.239Z,25.00
2022-08-17T08:22:23.894Z,25.00
2022-08-17T08:25:36.566Z,25.10
2022-08-17T08:28:56.698Z,25.20
2022-08-17T08:31:30.601Z,25.20
2022-08-17T08:35:00.688Z,25.30
2022-08-17T08:37:49.488Z,25.30
2022-08-17T08:40:45.890Z,25.40
2022-08-17T08:44:03.796Z,25.40
2022-08-17T08:46:49.799Z,25.40
2022-08-17T08:53:06.590Z,25.40
2022-08-17T08:55:52.355Z,25.40
2022-08-17T08:58:50.528Z,25.40
2022-08-17T09:02:00.777Z,25.50
2022-08-17T09:05:15.663Z,25.60
2022-08-17T09:08:31.846Z,25.50
2022-08-17T09:11:19.955Z,25.50
2022-08-17T09:14:05.471Z,25.50
2022-08-17T09:17:09.123Z,25.60
2022-08-17T09:19:57.046Z,25.50
2022-08-17T09:22:38.812Z,25.50
2022-08-17T09:25:16.930Z,25.50
2022-08-17T09:28:00.551Z,25.50
2022-08-17T09:30:52.102Z,25.50
2022-08-17T09:33:27.174Z,25.50
2022-08-17T09:36:13.604Z,25.50
2022-08-17T09:39:02.666Z,25.60
2022-08-17T09:41:48.774Z,25.60
2022-08-17T09:44:39.926Z,25.70
2022-08-17T09:47:31.731Z,25.60
2022-08-17T09:50:17.462Z,25.60
2022-08-17T09:52:58.053Z,25.60
2022-08-17T09:55:47.993Z,25.60
2022-08-17T09:58:40.612Z,25.50
2022-08-17T10:01:38.065Z,25.50
2022-08-17T10:04:42.599Z,25.40
2022-08-17T10:07:32.072Z,25.40
2022-08-17T10:10:16.420Z,25.40
2022-08-17T10:13:16.262Z,25.40
2022-08-17T10:16:19.212Z,25.50
2022-08-17T10:19:02.627Z,25.60
2022-08-17T10:22:00.821Z,25.50
2022-08-17T10:25:21.209Z,25.50
2022-08-17T10:27:55.595Z,25.60
2022-08-17T10:30:31.052Z,25.70
2022-08-17T10:33:15.523Z,25.70
2022-08-17T10:35:56.103Z,25.70
2022-08-17T10:38:50.047Z,25.80
2022-08-17T10:41:40.812Z,25.90
2022-08-17T10:44:38.381Z,25.90
2022-08-17T10:47:18.647Z,25.90
2022-08-17T10:49:56.057Z,26.00
2022-08-17T10:52:48.749Z,26.10
2022-08-17T10:55:20.687Z,26.20
2022-08-17T10:57:54.842Z,26.20
2022-08-17T11:00:27.947Z,26.20
2022-08-17T11:03:00.162Z,26.10
2022-08-17T11:05:45.257Z,26.00
2022-08-17T11:08:58.804Z,26.00
2022-08-17T11:11:49.992Z,25.70
2022-08-17T11:14:59.591Z,25.70
2022-08-17T11:17:49.736Z,25.50
2022-08-17T11:20:52.735Z,25.30
2022-08-17T11:23:53.114Z,25.30
2022-08-17T11:26:32.044Z,25.00
2022-08-17T11:29:16.330Z,24.80
2022-08-17T11:32:07.833Z,24.90
2022-08-17T11:34:44.654Z,24.90
2022-08-17T11:37:27.501Z,24.80
2022-08-17T11:40:20.269Z,24.80
2022-08-17T11:43:13.999Z,24.80
2022-08-17T11:46:17.334Z,24.70
2022-08-17T11:49:42.950Z,24.70
2022-08-17T11:52:46.730Z,24.60
2022-08-17T11:55:37.503Z,24.80
2022-08-17T11:58:44.741Z,24.80
2022-08-17T12:01:26.963Z,24.80
2022-08-17T12:04:29.861Z,24.80
2022-08-17T12:07:13.685Z,24.80
2022-08-17T12:09:49.884Z,24.80
2022-08-17T12:12:35.911Z,24.80
2022-08-17T12:15:12.335Z,24.90
2022-08-17T12:17:56.152Z,25.00
2022-08-17T12:20:40.795Z,24.90
2022-08-17T12:23:38.875Z,25.00
2022-08-17T12:26:21.452Z,25.10
2022-08-17T12:29:02.393Z,25.10
2022-08-17T12:31:45.810Z,25.20
2022-08-17T12:34:23.083Z,25.50
2022-08-17T12:37:08.232Z,25.60
2022-08-17T12:39:56.656Z,25.70
2022-08-17T12:42:34.846Z,25.80
2022-08-17T12:45:10.281Z,26.00
2022-08-17T12:47:41.442Z,26.10
2022-08-17T12:50:29.891Z,26.10
2022-08-17T12:53:02.687Z,26.30
2022-08-17T12:55:38.991Z,26.30
2022-08-17T12:58:17.510Z,26.30
2022-08-17T13:01:01.687Z,26.30
2022-08-17T13:03:41.958Z,26.30
2022-08-17T13:06:30.252Z,26.30
2022-08-17T13:09:19.955Z,26.20
2022-08-17T13:11:55.962Z,26.50
2022-08-17T13:14:28.428Z,26.90
2022-08-17T13:17:08.381Z,27.00
2022-08-17T13:19:50.103Z,27.30
2022-08-17T13:22:25.003Z,27.70
2022-08-17T13:25:08.506Z,28.10
2022-08-17T13:27:43.721Z,28.40
2022-08-17T13:30:24.711Z,28.70
2022-08-17T13:32:57.443Z,28.90
2022-08-17T13:35:39.259Z,28.90
2022-08-17T13:38:50.985Z,29.10
2022-08-17T13:41:37.369Z,29.50
2022-08-17T13:44:32.960Z,29.40
2022-08-17T13:47:17.197Z,29.50
2022-08-17T13:49:49.480Z,29.80
2022-08-17T13:52:37.975Z,29.90
2022-08-17T13:55:22.251Z,30.40
2022-08-17T13:58:05.009Z,30.50
2022-08-17T14:00:39.532Z,30.40
2022-08-17T14:03:10.533Z,30.50
2022-08-17T14:05:41.686Z,30.70
2022-08-17T14:08:15.804Z,31.20
2022-08-17T14:10:58.128Z,31.30
2022-08-17T14:13:29.218Z,31.10
2022-08-17T14:16:00.228Z,30.80
2022-08-17T14:18:55.722Z,31.00
2022-08-17T14:21:22.273Z,31.00
2022-08-17T14:23:54.987Z,31.20
2022-08-17T14:26:26.043Z,31.40
2022-08-17T14:28:57.221Z,31.40
2022-08-17T14:31:31.020Z,31.30
2022-08-17T14:34:06.613Z,31.40
2022-08-17T14:36:38.983Z,31.50
2022-08-17T14:39:18.626Z,31.60
2022-08-17T14:41:50.134Z,31.60
2022-08-17T14:44:21.248Z,31.30
2022-08-17T14:46:52.951Z,31.30
2022-08-17T14:49:26.029Z,31.20
2022-08-17T14:51:57.580Z,31.30
2022-08-17T14:54:34.302Z,31.50
2022-08-17T14:57:24.771Z,31.50
2022-08-17T14:59:56.780Z,31.30
2022-08-17T15:02:30.059Z,30.90
2022-08-17T15:05:05.106Z,30.80
2022-08-17T15:07:36.082Z,31.00
2022-08-17T15:10:09.009Z,30.90
2022-08-17T15:12:40.927Z,30.90
2022-08-17T15:15:15.239Z,30.80
2022-08-17T15:17:46.380Z,30.70
2022-08-17T15:20:22.898Z,30.80
2022-08-17T15:22:55.618Z,30.80
2022-08-17T15:25:31.893Z,30.60
2022-08-17T15:28:03.287Z,30.50
2022-08-17T15:30:35.501Z,30.50
2022-08-17T15:33:06.638Z,30.60
2022-08-17T15:35:37.761Z,30.50
2022-08-17T15:38:12.341Z,30.50
2022-08-17T15:40:47.506Z,30.50
2022-08-17T15:43:27.862Z,30.60
2022-08-17T15:46:14.564Z,30.80
2022-08-17T15:48:52.366Z,31.10
2022-08-17T15:51:27.535Z,31.20
2022-08-17T15:54:04.369Z,31.10
2022-08-17T15:56:49.645Z,31.10
2022-08-17T15:59:20.666Z,31.20
2022-08-17T16:03:14.239Z,31.10
2022-08-17T16:04:44.358Z,30.90
2022-08-17T16:07:17.815Z,30.80
2022-08-17T16:09:54.878Z,30.30
2022-08-17T16:12:26.570Z,30.20
2022-08-17T16:14:57.632Z,30.20
2022-08-17T16:17:39.912Z,30.00
2022-08-17T16:20:19.653Z,29.70
2022-08-17T16:22:54.163Z,29.50
2022-08-17T16:25:38.887Z,29.40
2022-08-17T16:28:30.850Z,29.30
2022-08-17T16:31:08.133Z,29.20
2022-08-17T16:33:40.974Z,29.20
2022-08-17T16:36:12.060Z,29.20
2022-08-17T16:38:43.396Z,29.20
2022-08-17T16:41:39.324Z,29.10
2022-08-17T16:44:15.155Z,29.20
2022-08-17T16:46:48.332Z,29.10
2022-08-17T16:49:35.728Z,29.10
2022-08-17T16:52:10.642Z,29.00
2022-08-17T16:54:44.414Z,29.10
2022-08-17T16:57:17.484Z,29.00
2022-08-17T16:59:51.152Z,28.90
2022-08-17T17:02:36.521Z,28.80
2022-08-17T17:05:51.413Z,28.60
2022-08-17T17:08:43.673Z,28.50
2022-08-17T17:11:24.195Z,28.40
2022-08-17T17:14:04.247Z,28.30
2022-08-17T17:16:52.519Z,28.30
2022-08-17T17:19:46.718Z,28.20
2022-08-17T17:22:48.286Z,28.10
2022-08-17T17:25:29.793Z,28.10
2022-08-17T17:28:24.837Z,28.00
2022-08-17T17:31:17.640Z,27.90
2022-08-17T17:34:04.008Z,27.80
2022-08-17T17:36:52.788Z,27.70
2022-08-17T17:39:46.699Z,27.70
2022-08-17T17:42:25.235Z,27.60
2022-08-17T17:45:41.053Z,27.50
2022-08-17T17:48:12.070Z,27.40
2022-08-17T17:52:05.261Z,27.30
2022-08-17T17:54:48.350Z,27.30
2022-08-17T17:57:42.228Z,27.20
2022-08-17T18:00:39.683Z,27.10
2022-08-17T18:03:52.403Z,27.00
2022-08-17T18:07:03.768Z,26.90
2022-08-17T18:10:01.070Z,26.80
2022-08-17T18:12:47.382Z,26.70
2022-08-17T18:15:36.305Z,26.50
2022-08-17T18:18:17.233Z,26.50
2022-08-17T18:20:55.785Z,26.50
2022-08-17T18:23:28.582Z,26.40
2022-08-17T18:26:03.195Z,26.40
2022-08-17T18:28:39.882Z,26.30
2022-08-17T18:31:19.233Z,26.30
2022-08-17T18:33:55.724Z,26.20
2022-08-17T18:36:32.348Z,26.10
2022-08-17T18:39:30.003Z,26.00
2022-08-17T18:42:03.729Z,25.90
2022-08-17T18:44:38.146Z,25.90
2022-08-17T18:47:27.613Z,25.80
2022-08-17T18:50:25.274Z,25.70
2022-08-17T18:53:33.301Z,25.60
2022-08-17T18:56:31.240Z,25.50
2022-08-17T18:59:20.333Z,25.50
2022-08-17T19:02:17.148Z,25.40
2022-08-17T19:05:25.731Z,25.40
2022-08-17T19:08:28.441Z,25.40
2022-08-17T19:11:12.217Z,25.40
2022-08-17T19:13:43.146Z,25.30
2022-08-17T19:16:51.575Z,25.30
2022-08-17T19:19:32.549Z,25.20
2022-08-17T19:22:28.894Z,25.20
2022-08-17T19:25:21.953Z,25.10
2022-08-17T19:28:01.610Z,25.00
2022-08-17T19:30:37.034Z,25.00
2022-08-17T19:33:14.436Z,24.90
2022-08-17T19:36:01.464Z,24.90
2022-08-17T19:38:53.131Z,24.80
2022-08-17T19:41:42.997Z,24.70
2022-08-17T19:44:46.549Z,24.70
2022-08-17T19:47:55.606Z,24.60
2022-08-17T19:50:55.228Z,24.50
2022-08-17T19:54:07.307Z,24.40
2022-08-17T19:57:12.579Z,24.40
2022-08-17T20:00:13.293Z,24.30
2022-08-17T20:03:08.578Z,24.40
2022-08-17T20:06:12.064Z,24.40
2022-08-17T20:09:18.710Z,24.30
2022-08-17T20:11:58.935Z,24.30
2022-08-17T20:14:53.425Z,24.20
2022-08-17T20:17:37.331Z,24.20
2022-08-17T20:20:51.481Z,24.20
2022-08-17T20:23:54.067Z,24.20
2022-08-17T20:26:58.039Z,24.10
2022-08-17T20:29:54.754Z,24.00
2022-08-17T20:32:58.151Z,24.20
2022-08-17T20:35:38.104Z,24.10
2022-08-17T20:38:23.952Z,24.00
2022-08-17T20:40:54.914Z,23.90
2022-08-17T20:43:33.199Z,23.80
2022-08-17T20:46:20.044Z,23.80
2022-08-17T20:48:55.734Z,23.70
2022-08-17T20:52:04.870Z,23.60
2022-08-17T20:54:56.195Z,23.50
2022-08-17T20:57:33.130Z,23.40
2022-08-17T21:00:29.234Z,23.40
2022-08-17T21:03:24.092Z,23.30
2022-08-17T21:06:17.927Z,23.30
2022-08-17T21:09:12.765Z,23.30
2022-08-17T21:12:04.303Z,23.30
2022-08-17T21:14:58.203Z,23.30
2022-08-17T21:17:54.880Z,23.20
2022-08-17T21:20:35.057Z,23.20
2022-08-17T21:23:45.119Z,23.30
2022-08-17T21:26:33.290Z,23.30
2022-08-17T21:29:31.191Z,23.30
2022-08-17T21:32:12.210Z,23.30
2022-08-17T21:35:12.314Z,23.30
2022-08-17T21:37:49.062Z,23.30
2022-08-17T21:40:29.396Z,23.30
2022-08-17T21:43:24.566Z,23.30
2022-08-17T21:46:05.721Z,23.20
2022-08-17T21:48:54.342Z,23.20
2022-08-17T21:51:30.225Z,23.20
2022-08-17T21:54:34.728Z,23.20
2022-08-17T21:57:21.012Z,23.20
2022-08-17T22:00:01.177Z,23.30
2022-08-17T22:02:36.510Z,23.40
2022-08-17T22:05:11.463Z,23.50
2022-08-17T22:08:02.186Z,23.70
2022-08-17T22:10:41.601Z,23.80
2022-08-17T22:13:19.737Z,24.00
2022-08-17T22:16:28.455Z,24.10
2022-08-17T22:19:00.677Z,24.10
2022-08-17T22:21:31.616Z,23.90
2022-08-17T22:24:20.385Z,23.80
2022-08-17T22:27:10.366Z,23.70
2022-08-17T22:29:57.785Z,23.70
2022-08-17T22:32:41.982Z,23.60
2022-08-17T22:35:16.066Z,23.50
2022-08-17T22:37:47.089Z,23.10
2022-08-17T22:40:34.448Z,23.00
2022-08-17T22:43:11.887Z,22.90
2022-08-17T22:45:53.314Z,22.90
2022-08-17T22:48:28.804Z,22.80
2022-08-17T22:51:14.874Z,22.70
2022-08-17T22:54:35.610Z,22.60
2022-08-17T22:57:32.886Z,22.70
2022-08-17T23:00:06.787Z,22.70
2022-08-17T23:02:39.164Z,22.80
2022-08-17T23:05:24.034Z,22.80
2022-08-17T23:07:54.969Z,22.80
2022-08-17T23:10:28.229Z,22.80
2022-08-17T23:13:00.809Z,22.90
2022-08-17T23:15:33.837Z,22.80
2022-08-17T23:18:05.161Z,22.60
2022-08-17T23:20:39.517Z,22.40
2022-08-17T23:23:13.975Z,22.20
2022-08-17T23:25:46.152Z,22.00
2022-08-17T23:28:17.110Z,21.90
2022-08-17T23:30:48.540Z,21.80
2022-08-17T23:33:33.686Z,21.70
2022-08-17T23:36:09.748Z,21.60
2022-08-17T23:38:43.528Z,21.40
2022-08-17T23:41:18.133Z,21.40
2022-08-17T23:43:52.177Z,21.30
2022-08-17T23:46:24.401Z,21.30
2022-08-17T23:48:55.286Z,21.30
2022-08-17T23:51:34.626Z,21.20
2022-08-17T23:54:13.466Z,21.30
2022-08-17T23:56:47.108Z,21.20
2022-08-17T23:59:22.850Z,21.20
